createdAt,value
2017-10-28T00:01:17.315Z,15.62
2017-10-28T00:03:45.751Z,15.68
2017-10-28T00:06:13.568Z,15.74
2017-10-28T00:08:41.279Z,15.79
2017-10-28T00:11:08.880Z,15.75
2017-10-28T00:13:36.519Z,15.73
2017-10-28T00:16:04.268Z,15.65
2017-10-28T00:18:31.872Z,15.62
2017-10-28T00:20:59.480Z,15.62
2017-10-28T00:23:27.888Z,15.51
2017-10-28T00:25:55.487Z,15.44
2017-10-28T00:28:24.027Z,15.39
2017-10-28T00:30:57.650Z,15.23
2017-10-28T00:33:30.771Z,15.24
2017-10-28T00:36:15.289Z,15.19
2017-10-28T00:38:43.015Z,15.12
2017-10-28T00:41:11.440Z,15.08
2017-10-28T00:43:39.759Z,14.99
2017-10-28T00:46:07.424Z,14.90
2017-10-28T00:48:35.116Z,14.86
2017-10-28T00:51:02.772Z,14.78
2017-10-28T00:53:30.518Z,14.66
2017-10-28T00:55:58.124Z,14.48
2017-10-28T00:58:25.778Z,14.37
2017-10-28T01:00:53.380Z,14.28
2017-10-28T01:03:21.157Z,14.19
2017-10-28T01:05:48.856Z,14.08
2017-10-28T01:08:16.518Z,14.03
2017-10-28T01:10:44.181Z,13.81
2017-10-28T01:13:11.899Z,13.73
2017-10-28T01:15:39.564Z,13.65
2017-10-28T01:18:07.168Z,13.58
2017-10-28T01:20:35.723Z,13.57
2017-10-28T01:23:04.295Z,13.55
2017-10-28T01:25:32.012Z,13.43
2017-10-28T01:27:59.658Z,13.33
2017-10-28T01:30:28.055Z,13.26
2017-10-28T01:32:56.617Z,13.15
2017-10-28T01:35:25.146Z,13.05
2017-10-28T01:37:52.743Z,12.98
2017-10-28T01:40:20.343Z,12.93
2017-10-28T01:42:48.037Z,12.92
2017-10-28T01:45:15.735Z,12.90
2017-10-28T01:47:43.327Z,12.89
2017-10-28T01:50:11.020Z,12.85
2017-10-28T01:52:38.650Z,12.82
2017-10-28T01:55:07.094Z,12.75
2017-10-28T01:57:34.804Z,12.71
2017-10-28T02:00:02.456Z,12.60
2017-10-28T02:02:30.251Z,12.60
2017-10-28T02:04:57.952Z,12.59
2017-10-28T02:07:25.560Z,12.55
2017-10-28T02:09:53.160Z,12.53
2017-10-28T02:12:21.255Z,12.50
2017-10-28T02:14:48.852Z,12.41
2017-10-28T02:17:16.532Z,12.46
2017-10-28T02:19:44.260Z,12.45
2017-10-28T02:22:12.053Z,12.44
2017-10-28T02:24:39.712Z,12.42
2017-10-28T02:27:08.241Z,12.35
2017-10-28T02:29:36.843Z,12.31
2017-10-28T02:32:05.425Z,12.25
2017-10-28T02:34:33.133Z,12.22
2017-10-28T02:37:00.788Z,12.12
2017-10-28T02:39:28.394Z,12.04
2017-10-28T02:41:56.044Z,12.04
2017-10-28T02:44:23.683Z,11.95
2017-10-28T02:46:51.289Z,11.90
2017-10-28T02:49:18.949Z,11.86
2017-10-28T02:51:46.609Z,11.80
2017-10-28T02:54:14.279Z,11.78
2017-10-28T02:56:41.920Z,11.73
2017-10-28T02:59:09.528Z,11.66
2017-10-28T03:01:37.144Z,11.63
2017-10-28T03:04:04.825Z,11.59
2017-10-28T03:06:32.436Z,11.59
2017-10-28T03:09:00.092Z,11.60
2017-10-28T03:11:28.641Z,11.64
2017-10-28T03:13:56.311Z,11.59
2017-10-28T03:16:24.013Z,11.56
2017-10-28T03:18:51.668Z,11.54
2017-10-28T03:21:19.287Z,11.55
2017-10-28T03:23:47.139Z,11.50
2017-10-28T03:26:14.852Z,11.47
2017-10-28T03:28:42.542Z,11.43
2017-10-28T03:31:10.206Z,11.41
2017-10-28T03:33:37.859Z,11.39
2017-10-28T03:36:06.203Z,11.39
2017-10-28T03:38:33.870Z,11.34
2017-10-28T03:41:01.524Z,11.31
2017-10-28T03:43:29.334Z,11.29
2017-10-28T03:45:56.996Z,11.24
2017-10-28T03:48:24.732Z,11.21
2017-10-28T03:50:52.373Z,11.14
2017-10-28T03:53:20.116Z,11.07
2017-10-28T03:55:47.936Z,11.06
2017-10-28T03:58:15.539Z,11.02
2017-10-28T04:00:43.138Z,10.93
2017-10-28T04:03:11.744Z,10.91
2017-10-28T04:05:39.452Z,10.88
2017-10-28T04:08:07.065Z,10.86
2017-10-28T04:10:34.838Z,10.82
2017-10-28T04:13:02.453Z,10.80
2017-10-28T04:15:30.067Z,10.79
2017-10-28T04:17:57.897Z,10.76
2017-10-28T04:20:25.606Z,10.69
2017-10-28T04:22:53.288Z,10.68
2017-10-28T04:25:21.044Z,10.65
2017-10-28T04:27:48.728Z,10.64
2017-10-28T04:30:16.396Z,10.63
2017-10-28T04:32:44.116Z,10.64
2017-10-28T04:35:11.788Z,10.63
2017-10-28T04:37:39.656Z,10.63
2017-10-28T04:40:07.583Z,10.61
2017-10-28T04:42:35.380Z,10.60
2017-10-28T04:45:03.076Z,10.64
2017-10-28T04:47:30.780Z,10.64
2017-10-28T04:49:58.387Z,10.60
2017-10-28T04:52:26.871Z,10.62
2017-10-28T04:54:54.587Z,10.63
2017-10-28T04:57:22.359Z,10.67
2017-10-28T04:59:50.080Z,10.72
2017-10-28T05:02:17.752Z,10.68
2017-10-28T05:04:45.495Z,10.71
2017-10-28T05:07:13.120Z,10.70
2017-10-28T05:09:40.932Z,10.71
2017-10-28T05:12:08.604Z,10.70
2017-10-28T05:14:36.237Z,10.76
2017-10-28T05:17:03.896Z,10.79
2017-10-28T05:19:31.556Z,10.75
2017-10-28T05:21:59.308Z,10.74
2017-10-28T05:24:26.974Z,10.72
2017-10-28T05:26:54.645Z,10.67
2017-10-28T05:29:22.315Z,10.63
2017-10-28T05:31:50.899Z,10.65
2017-10-28T05:34:18.503Z,10.61
2017-10-28T05:36:46.174Z,10.63
2017-10-28T05:39:13.840Z,10.64
2017-10-28T05:41:41.447Z,10.67
2017-10-28T05:44:09.104Z,10.71
2017-10-28T05:46:36.774Z,10.73
2017-10-28T05:49:04.464Z,10.69
2017-10-28T05:51:32.143Z,10.72
2017-10-28T05:53:59.873Z,10.74
2017-10-28T05:56:27.719Z,10.76
2017-10-28T05:58:55.491Z,10.77
2017-10-28T06:01:23.284Z,10.80
2017-10-28T06:03:50.895Z,10.86
2017-10-28T06:06:18.534Z,10.90
2017-10-28T06:08:46.284Z,10.91
2017-10-28T06:11:13.892Z,10.94
2017-10-28T06:13:41.528Z,10.97
2017-10-28T06:16:09.183Z,10.98
2017-10-28T06:18:36.862Z,11.02
2017-10-28T06:21:04.541Z,11.06
2017-10-28T06:23:32.271Z,11.11
2017-10-28T06:26:00.189Z,11.18
2017-10-28T06:28:27.801Z,11.23
2017-10-28T06:30:55.532Z,11.27
2017-10-28T06:33:23.226Z,11.33
2017-10-28T06:35:50.893Z,11.40
2017-10-28T06:38:18.650Z,11.48
2017-10-28T06:40:46.327Z,11.51
2017-10-28T06:43:13.971Z,11.59
2017-10-28T06:45:41.636Z,11.65
2017-10-28T06:48:10.020Z,11.68
2017-10-28T06:50:37.752Z,11.68
2017-10-28T06:53:05.467Z,11.71
2017-10-28T06:55:33.086Z,11.73
2017-10-28T06:58:00.824Z,11.74
2017-10-28T07:00:28.542Z,11.77
2017-10-28T07:02:56.383Z,11.75
2017-10-28T07:05:23.991Z,11.74
2017-10-28T07:07:51.656Z,11.81
2017-10-28T07:10:19.293Z,11.86
2017-10-28T07:12:46.928Z,11.85
2017-10-28T07:15:14.651Z,11.91
2017-10-28T07:17:42.319Z,11.89
2017-10-28T07:20:09.966Z,11.90
2017-10-28T07:22:37.678Z,11.92
2017-10-28T07:25:05.336Z,11.98
2017-10-28T07:27:33.007Z,11.99
2017-10-28T07:30:00.655Z,12.05
2017-10-28T07:32:28.252Z,12.09
2017-10-28T07:34:56.093Z,12.02
2017-10-28T07:37:23.856Z,12.08
2017-10-28T07:39:51.476Z,12.17
2017-10-28T07:42:19.216Z,12.05
2017-10-28T07:44:47.039Z,11.86
2017-10-28T07:47:14.719Z,11.90
2017-10-28T07:49:42.509Z,11.89
2017-10-28T07:52:10.165Z,11.88
2017-10-28T07:54:37.848Z,11.87
2017-10-28T07:57:05.516Z,11.89
2017-10-28T07:59:33.225Z,11.89
2017-10-28T08:02:00.823Z,11.88
2017-10-28T08:04:28.548Z,11.98
2017-10-28T08:06:56.211Z,11.98
2017-10-28T08:09:23.818Z,11.94
2017-10-28T08:11:51.496Z,11.99
2017-10-28T08:14:19.259Z,11.96
2017-10-28T08:16:46.884Z,12.08
2017-10-28T08:19:14.579Z,12.14
2017-10-28T08:21:42.235Z,12.25
2017-10-28T08:24:09.916Z,12.34
2017-10-28T08:26:37.536Z,12.38
2017-10-28T08:29:05.179Z,12.38
2017-10-28T08:31:32.918Z,12.39
2017-10-28T08:34:00.564Z,12.30
2017-10-28T08:36:28.292Z,12.24
2017-10-28T08:38:55.896Z,12.24
2017-10-28T08:41:23.569Z,12.22
2017-10-28T08:43:51.236Z,12.28
2017-10-28T08:46:18.840Z,12.33
2017-10-28T08:48:46.502Z,12.31
2017-10-28T08:51:14.247Z,12.47
2017-10-28T08:53:41.857Z,12.54
2017-10-28T08:56:09.548Z,12.58
2017-10-28T08:58:37.224Z,12.61
2017-10-28T09:01:04.844Z,12.57
2017-10-28T09:03:32.517Z,12.48
2017-10-28T09:06:00.198Z,12.40
2017-10-28T09:08:27.881Z,12.34
2017-10-28T09:10:55.562Z,12.22
2017-10-28T09:13:23.318Z,12.13
2017-10-28T09:15:50.916Z,12.04
2017-10-28T09:18:18.568Z,12.10
2017-10-28T09:20:46.259Z,11.98
2017-10-28T09:23:13.879Z,11.93
2017-10-28T09:25:41.608Z,11.97
2017-10-28T09:28:09.282Z,12.05
2017-10-28T09:30:36.962Z,12.06
2017-10-28T09:33:04.697Z,12.09
2017-10-28T09:35:32.475Z,12.01
2017-10-28T09:38:00.181Z,11.95
2017-10-28T09:40:27.799Z,11.90
2017-10-28T09:42:55.537Z,11.96
2017-10-28T09:45:23.204Z,11.89
2017-10-28T09:47:50.833Z,11.89
2017-10-28T09:50:18.589Z,11.94
2017-10-28T09:52:46.259Z,11.81
2017-10-28T09:55:13.944Z,11.89
2017-10-28T09:57:41.617Z,11.95
2017-10-28T10:00:09.389Z,12.02
2017-10-28T10:02:37.145Z,11.96
2017-10-28T10:05:04.899Z,12.03
2017-10-28T10:07:32.627Z,12.04
2017-10-28T10:10:00.303Z,12.04
2017-10-28T10:12:28.008Z,12.20
2017-10-28T10:14:55.628Z,12.22
2017-10-28T10:17:23.317Z,12.21
2017-10-28T10:19:51.032Z,12.22
2017-10-28T10:22:18.752Z,12.22
2017-10-28T10:24:47.336Z,12.29
2017-10-28T10:27:15.104Z,12.41
2017-10-28T10:29:42.754Z,12.39
2017-10-28T10:32:10.364Z,12.48
2017-10-28T10:34:38.126Z,12.55
2017-10-28T10:37:05.795Z,12.60
2017-10-28T10:39:33.428Z,12.73
2017-10-28T10:42:01.091Z,12.76
2017-10-28T10:44:28.698Z,12.78
2017-10-28T10:46:56.391Z,12.75
2017-10-28T10:49:24.181Z,12.60
2017-10-28T10:51:51.814Z,12.59
2017-10-28T10:54:19.492Z,12.57
2017-10-28T10:56:47.195Z,12.57
2017-10-28T10:59:14.894Z,12.71
2017-10-28T11:01:43.505Z,12.91
2017-10-28T11:04:11.231Z,12.98
2017-10-28T11:06:39.037Z,12.97
2017-10-28T11:09:06.746Z,12.89
2017-10-28T11:11:34.505Z,13.04
2017-10-28T11:14:02.157Z,13.03
2017-10-28T11:16:29.875Z,12.93
2017-10-28T11:18:57.632Z,13.02
2017-10-28T11:21:25.348Z,13.02
2017-10-28T11:23:52.979Z,12.91
2017-10-28T11:26:20.783Z,12.85
2017-10-28T11:28:48.424Z,12.90
2017-10-28T11:31:16.063Z,13.05
2017-10-28T11:33:43.792Z,13.21
2017-10-28T11:36:11.475Z,13.43
2017-10-28T11:38:39.219Z,13.63
2017-10-28T11:41:07.048Z,13.83
2017-10-28T11:43:34.692Z,13.96
2017-10-28T11:46:02.299Z,13.95
2017-10-28T11:48:29.979Z,14.11
2017-10-28T11:50:57.647Z,14.25
2017-10-28T11:53:26.083Z,14.23
2017-10-28T11:55:53.765Z,13.96
2017-10-28T11:58:21.400Z,14.19
2017-10-28T12:00:49.177Z,14.31
2017-10-28T12:03:16.877Z,14.45
2017-10-28T12:05:44.503Z,14.58
2017-10-28T12:08:12.176Z,14.67
2017-10-28T12:10:39.945Z,14.82
2017-10-28T12:13:07.663Z,14.97
2017-10-28T12:15:35.271Z,14.93
2017-10-28T12:18:02.992Z,14.92
2017-10-28T12:20:30.751Z,14.49
2017-10-28T12:22:58.375Z,14.23
2017-10-28T12:25:26.341Z,14.06
2017-10-28T12:27:54.006Z,13.89
2017-10-28T12:30:21.708Z,13.76
2017-10-28T12:32:49.395Z,13.75
2017-10-28T12:35:16.999Z,13.63
2017-10-28T12:37:45.405Z,13.60
2017-10-28T12:40:13.071Z,13.34
2017-10-28T12:42:40.678Z,13.08
2017-10-28T12:45:09.117Z,12.79
2017-10-28T12:47:36.938Z,12.53
2017-10-28T12:50:04.645Z,12.31
2017-10-28T12:52:32.315Z,12.14
2017-10-28T12:55:00.188Z,11.96
2017-10-28T12:57:27.843Z,11.80
2017-10-28T12:59:55.592Z,11.77
2017-10-28T13:02:23.343Z,11.60
2017-10-28T13:04:51.037Z,11.42
2017-10-28T13:07:18.735Z,11.37
2017-10-28T13:09:46.583Z,11.33
2017-10-28T13:12:14.229Z,11.32
2017-10-28T13:14:41.852Z,11.33
2017-10-28T13:17:09.638Z,11.40
2017-10-28T13:19:37.426Z,11.32
2017-10-28T13:22:05.147Z,11.23
2017-10-28T13:24:32.930Z,11.30
2017-10-28T13:27:00.747Z,11.31
2017-10-28T13:29:28.628Z,11.35
2017-10-28T13:31:56.435Z,11.36
2017-10-28T13:34:24.081Z,11.33
2017-10-28T13:36:51.781Z,11.29
2017-10-28T13:39:19.548Z,11.30
2017-10-28T13:41:47.319Z,11.31
2017-10-28T13:44:15.125Z,11.42
2017-10-28T13:46:42.935Z,11.56
2017-10-28T13:49:10.587Z,11.67
2017-10-28T13:51:38.272Z,11.76
2017-10-28T13:54:06.156Z,11.76
2017-10-28T13:56:33.837Z,11.83
2017-10-28T13:59:01.513Z,11.85
2017-10-28T14:01:29.242Z,11.82
2017-10-28T14:03:56.876Z,11.75
2017-10-28T14:06:24.587Z,11.74
2017-10-28T14:08:52.347Z,11.71
2017-10-28T14:11:20.031Z,11.64
2017-10-28T14:13:47.651Z,11.55
2017-10-28T14:16:15.427Z,11.49
2017-10-28T14:18:43.043Z,11.42
2017-10-28T14:21:10.740Z,11.41
2017-10-28T14:23:38.581Z,11.36
2017-10-28T14:26:06.247Z,11.25
2017-10-28T14:28:34.688Z,11.22
2017-10-28T14:31:02.443Z,11.13
2017-10-28T14:33:30.138Z,11.09
2017-10-28T14:35:57.872Z,11.08
2017-10-28T14:38:25.655Z,11.07
2017-10-28T14:40:53.280Z,11.05
2017-10-28T14:43:20.907Z,10.99
2017-10-28T14:45:48.696Z,11.00
2017-10-28T14:48:16.363Z,10.97
2017-10-28T14:50:44.032Z,10.95
2017-10-28T14:53:11.856Z,10.97
2017-10-28T14:55:39.508Z,10.99
2017-10-28T14:58:07.127Z,11.02
2017-10-28T15:00:34.856Z,11.01
2017-10-28T15:03:02.538Z,11.04
2017-10-28T15:05:30.160Z,11.02
2017-10-28T15:07:57.840Z,11.04
2017-10-28T15:10:25.523Z,11.04
2017-10-28T15:12:53.139Z,11.06
2017-10-28T15:15:20.873Z,11.06
2017-10-28T15:17:48.488Z,11.05
2017-10-28T15:20:16.276Z,11.08
2017-10-28T15:22:43.941Z,11.06
2017-10-28T15:25:11.620Z,11.07
2017-10-28T15:27:39.245Z,11.05
2017-10-28T15:30:06.963Z,11.03
2017-10-28T15:32:34.629Z,11.00
2017-10-28T15:35:02.253Z,10.97
2017-10-28T15:37:30.003Z,10.91
2017-10-28T15:39:57.671Z,10.89
2017-10-28T15:42:25.284Z,10.85
2017-10-28T15:44:52.951Z,10.80
2017-10-28T15:47:20.612Z,10.77
2017-10-28T15:49:48.348Z,10.76
2017-10-28T15:52:16.021Z,10.75
2017-10-28T15:54:43.643Z,10.73
2017-10-28T15:57:11.263Z,10.73
2017-10-28T15:59:39.012Z,10.69
2017-10-28T16:02:06.700Z,10.67
2017-10-28T16:04:34.311Z,10.62
2017-10-28T16:07:02.224Z,10.63
2017-10-28T16:09:29.851Z,10.61
2017-10-28T16:11:57.528Z,10.59
2017-10-28T16:14:25.269Z,10.52
2017-10-28T16:16:52.899Z,10.36
2017-10-28T16:19:20.513Z,10.30
2017-10-28T16:21:48.283Z,10.28
2017-10-28T16:24:15.920Z,10.25
2017-10-28T16:26:43.561Z,10.14
2017-10-28T16:29:11.253Z,10.05
2017-10-28T16:31:38.956Z,9.95
2017-10-28T16:34:06.592Z,9.86
2017-10-28T16:36:34.283Z,9.81
2017-10-28T16:39:01.915Z,9.81
2017-10-28T16:41:30.053Z,9.75
2017-10-28T16:43:58.059Z,9.74
2017-10-28T16:46:25.713Z,9.76
2017-10-28T16:48:54.575Z,9.70
2017-10-28T16:51:22.296Z,9.61
2017-10-28T16:53:49.974Z,9.59
2017-10-28T16:56:17.655Z,9.62
2017-10-28T16:58:45.453Z,9.63
2017-10-28T17:01:13.220Z,9.63
2017-10-28T17:03:40.860Z,9.63
2017-10-28T17:06:08.549Z,9.64
2017-10-28T17:08:36.167Z,9.63
2017-10-28T17:11:03.860Z,9.63
2017-10-28T17:13:31.535Z,9.63
2017-10-28T17:15:59.550Z,9.64
2017-10-28T17:18:27.252Z,9.63
2017-10-28T17:20:54.932Z,9.64
2017-10-28T17:23:22.549Z,9.67
2017-10-28T17:25:50.253Z,9.68
2017-10-28T17:28:17.930Z,9.72
2017-10-28T17:30:45.563Z,9.72
2017-10-28T17:33:13.245Z,9.72
2017-10-28T17:35:40.938Z,9.74
2017-10-28T17:38:08.570Z,9.78
2017-10-28T17:40:36.247Z,9.78
2017-10-28T17:43:03.928Z,9.78
2017-10-28T17:45:31.552Z,9.83
2017-10-28T17:47:59.167Z,9.81
2017-10-28T17:50:26.835Z,9.83
2017-10-28T17:52:54.465Z,9.80
2017-10-28T17:55:22.179Z,9.82
2017-10-28T17:57:49.859Z,9.85
2017-10-28T18:00:17.601Z,9.86
2017-10-28T18:02:45.231Z,9.90
2017-10-28T18:05:12.908Z,9.96
2017-10-28T18:07:40.592Z,9.94
2017-10-28T18:10:08.276Z,9.96
2017-10-28T18:12:35.987Z,9.95
2017-10-28T18:15:03.712Z,9.98
2017-10-28T18:17:31.335Z,10.00
2017-10-28T18:19:58.995Z,10.03
2017-10-28T18:22:26.664Z,10.10
2017-10-28T18:24:54.292Z,10.15
2017-10-28T18:27:21.955Z,10.18
2017-10-28T18:29:49.585Z,10.21
2017-10-28T18:32:17.255Z,10.28
2017-10-28T18:34:51.166Z,10.31
2017-10-28T18:37:18.779Z,10.36
2017-10-28T18:39:46.457Z,10.36
2017-10-28T18:42:14.127Z,10.34
2017-10-28T18:44:41.800Z,10.32
2017-10-28T18:47:09.416Z,10.33
2017-10-28T18:49:37.155Z,10.34
2017-10-28T18:52:04.780Z,10.35
2017-10-28T18:54:32.448Z,10.35
2017-10-28T18:57:00.103Z,10.37
2017-10-28T18:59:27.715Z,10.41
2017-10-28T19:01:55.398Z,10.45
2017-10-28T19:04:23.072Z,10.36
2017-10-28T19:06:50.672Z,10.32
2017-10-28T19:09:18.277Z,10.27
2017-10-28T19:11:46.000Z,10.27
2017-10-28T19:14:13.672Z,10.24
2017-10-28T19:16:41.340Z,10.24
2017-10-28T19:19:09.060Z,10.23
2017-10-28T19:21:36.731Z,10.21
2017-10-28T19:24:04.427Z,10.28
2017-10-28T19:26:32.089Z,10.34
2017-10-28T19:28:59.765Z,10.39
2017-10-28T19:31:27.419Z,10.41
2017-10-28T19:33:55.088Z,10.38
2017-10-28T19:36:22.748Z,10.35
2017-10-28T19:38:50.356Z,10.31
2017-10-28T19:41:18.041Z,10.18
2017-10-28T19:43:45.709Z,10.06
2017-10-28T19:46:13.315Z,9.93
2017-10-28T19:48:40.987Z,9.79
2017-10-28T19:51:08.599Z,9.70
2017-10-28T19:53:36.273Z,9.60
2017-10-28T19:56:03.988Z,9.48
2017-10-28T19:58:31.656Z,9.35
2017-10-28T20:00:59.312Z,9.31
2017-10-28T20:03:27.031Z,9.25
2017-10-28T20:05:54.691Z,9.18
2017-10-28T20:08:22.355Z,9.14
2017-10-28T20:10:50.063Z,9.11
2017-10-28T20:13:17.680Z,9.04
2017-10-28T20:15:45.343Z,9.03
2017-10-28T20:18:13.019Z,9.08
2017-10-28T20:20:40.692Z,9.25
2017-10-28T20:23:08.357Z,9.19
2017-10-28T20:25:36.008Z,9.23
2017-10-28T20:28:03.610Z,9.13
2017-10-28T20:30:31.208Z,9.08
2017-10-28T20:32:58.895Z,9.05
2017-10-28T20:35:26.499Z,9.07
2017-10-28T20:37:54.161Z,9.13
2017-10-28T20:40:21.873Z,9.11
2017-10-28T20:42:49.534Z,9.19
2017-10-28T20:45:17.135Z,9.05
2017-10-28T20:47:44.792Z,9.03
2017-10-28T20:50:12.473Z,8.95
2017-10-28T20:52:40.075Z,8.86
2017-10-28T20:55:07.715Z,8.91
2017-10-28T20:57:35.384Z,8.96
2017-10-28T21:00:04.739Z,8.88
2017-10-28T21:02:32.484Z,8.89
2017-10-28T21:05:00.088Z,8.97
2017-10-28T21:07:27.689Z,9.13
2017-10-28T21:09:55.332Z,9.15
2017-10-28T21:12:22.985Z,9.28
2017-10-28T21:14:50.584Z,9.43
2017-10-28T21:17:18.223Z,9.58
2017-10-28T21:19:45.819Z,9.62
2017-10-28T21:22:13.868Z,9.60
2017-10-28T21:24:41.530Z,9.62
2017-10-28T21:27:09.124Z,9.62
2017-10-28T21:29:36.724Z,9.66
2017-10-28T21:32:04.364Z,9.66
2017-10-28T21:34:32.012Z,9.68
2017-10-28T21:36:59.611Z,9.72
2017-10-28T21:39:27.320Z,9.76
2017-10-28T21:41:54.911Z,9.82
2017-10-28T21:44:22.503Z,9.88
2017-10-28T21:46:50.151Z,9.89
2017-10-28T21:49:17.800Z,9.93
2017-10-28T21:51:45.457Z,9.85
2017-10-28T21:54:13.104Z,9.84
2017-10-28T21:56:40.706Z,9.79
2017-10-28T21:59:08.304Z,9.74
2017-10-28T22:01:35.956Z,9.75
2017-10-28T22:04:03.562Z,9.61
2017-10-28T22:06:31.156Z,9.56
2017-10-28T22:08:58.808Z,9.55
2017-10-28T22:11:26.405Z,9.46
2017-10-28T22:13:54.000Z,9.48
2017-10-28T22:16:21.636Z,9.45
2017-10-28T22:18:49.297Z,9.42
2017-10-28T22:21:16.903Z,9.53
2017-10-28T22:23:44.553Z,9.61
2017-10-28T22:26:12.141Z,9.59
2017-10-28T22:28:39.791Z,9.58
2017-10-28T22:31:07.528Z,9.60
2017-10-28T22:33:35.128Z,9.69
2017-10-28T22:36:02.780Z,9.75
2017-10-28T22:38:30.488Z,9.80
2017-10-28T22:40:58.148Z,9.91
2017-10-28T22:43:25.800Z,9.86
2017-10-28T22:45:53.462Z,9.88
2017-10-28T22:48:21.854Z,9.92
2017-10-28T22:50:49.516Z,9.96
2017-10-28T22:53:17.168Z,10.04
2017-10-28T22:55:44.787Z,10.02
2017-10-28T22:58:12.452Z,10.03
2017-10-28T23:00:40.095Z,10.05
2017-10-28T23:03:07.756Z,10.03
2017-10-28T23:05:35.411Z,10.02
2017-10-28T23:08:03.124Z,10.05
2017-10-28T23:10:30.767Z,10.09
2017-10-28T23:12:58.423Z,10.05
2017-10-28T23:15:26.077Z,10.04
2017-10-28T23:17:53.684Z,10.07
2017-10-28T23:20:21.349Z,10.05
2017-10-28T23:22:49.104Z,10.06
2017-10-28T23:25:16.704Z,10.05
2017-10-28T23:27:44.368Z,10.05
2017-10-28T23:30:12.072Z,9.99
2017-10-28T23:32:39.720Z,9.96
2017-10-28T23:35:07.382Z,9.92
2017-10-28T23:37:35.027Z,9.93
2017-10-28T23:40:02.615Z,9.90
2017-10-28T23:42:30.218Z,9.85
2017-10-28T23:44:57.864Z,9.86
2017-10-28T23:47:25.460Z,9.84
2017-10-28T23:49:53.052Z,9.84
2017-10-28T23:52:20.705Z,9.80
2017-10-28T23:54:48.367Z,9.78
2017-10-28T23:57:16.055Z,9.75
2017-10-28T23:59:43.770Z,9.73
